Currently 72°F in Riverside (Orangecrest), California, USA
72°F
72°F / 53°F
6 mph E
0.00"
Sunday, November 29, 2020 2:13 PM PST

Riverside (Orangecrest), California Weather Summary
Last 36 Hours

Temperature Winds Hourly Humidity Dewpoint
Time Report Norm Report Norm Max Gusts Precip. Rpt. Norm Rpt. Norm Pressure
1Sun 02:13 PM  72.1°F  64°F  6 mph E  5 mph  10 mph  0.00"  7%  33%  1°F  33°F  N/A
Sun 02:00 PM  71.6°F  64°F  6 mph S  5 mph  11 mph  0.00"  7%  33%  1°F  33°F  N/A
2Sun 01:48 PM  72.2°F  64°F  4 mph S  5 mph  11 mph  ----  7%  33%  1°F  34°F  N/A
Sun 01:00 PM  71.6°F  64°F  3 mph SW  5 mph  13 mph  0.00"  6%  34%  -1°F  34°F  N/A
Sun 12:00 PM  69.8°F  63°F  7 mph SE  4 mph  10 mph  0.00"  6%  35%  -3°F  34°F  N/A
Sun 11:00 AM  68.5°F  62°F  4 mph SW  5 mph  7 mph  0.00"  7%  38%  -1°F  35°F  N/A
Sun 10:00 AM  66.0°F  59°F  calm  4 mph  2 mph  0.00"  10%  45%  6°F  37°F  N/A
Sun 09:00 AM  61.6°F  56°F  calm  4 mph  9 mph  0.00"  13%  51%  7°F  38°F  N/A
Sun 08:00 AM  58.9°F  53°F  calm  3 mph  9 mph  0.00"  18%  56%  13°F  37°F  N/A
Sun 07:00 AM  55.0°F  52°F  3 mph SW  3 mph  6 mph  0.00"  16%  58%  7°F  37°F  N/A
Sun 06:00 AM  56.0°F  52°F  1 mph SW  3 mph  4 mph  0.00"  15%  59%  6°F  37°F  N/A
Sun 05:00 AM  57.9°F  52°F  3 mph SW  2 mph  4 mph  0.00"  13%  60%  5°F  38°F  N/A
Sun 04:00 AM  56.4°F  52°F  calm  3 mph  6 mph  0.00"  15%  59%  6°F  37°F  N/A
Sun 03:00 AM  55.2°F  53°F  calm  3 mph  5 mph  0.00"  16%  58%  8°F  38°F  N/A
Sun 02:00 AM  54.9°F  53°F  4 mph SW  3 mph  6 mph  0.00"  17%  58%  9°F  38°F  N/A
3Sun 01:28 AM  52.7°F  53°F  3 mph SW  2 mph  6 mph  ----  21%  58%  12°F  38°F  N/A
Sun 01:00 AM  55.1°F  53°F  1 mph SW  2 mph  6 mph  0.00"  19%  57%  11°F  38°F  N/A
Sun 12:00 AM  57.9°F  54°F  4 mph SW  3 mph  11 mph  0.00"  16%  57%  10°F  38°F  N/A
Sat 11:00 PM  55.7°F  55°F  3 mph SW  3 mph  8 mph  0.00"  20%  56%  14°F  39°F  N/A
Sat 10:00 PM  57.6°F  55°F  6 mph SW  3 mph  10 mph  0.00"  19%  54%  13°F  38°F  N/A
Sat 09:00 PM  58.9°F  56°F  3 mph SW  2 mph  11 mph  0.00"  17%  53%  12°F  38°F  N/A
Sat 08:00 PM  59.2°F  57°F  calm  3 mph  7 mph  0.00"  14%  51%  8°F  38°F  N/A
Sat 07:00 PM  59.7°F  58°F  4 mph SW  3 mph  8 mph  0.00"  14%  50%  8°F  38°F  N/A
Sat 06:00 PM  61.6°F  59°F  4 mph S  4 mph  7 mph  0.00"  13%  46%  8°F  37°F  N/A
Sat 05:00 PM  63.6°F  61°F  1 mph S  5 mph  8 mph  0.00"  12%  42%  7°F  37°F  N/A
Sat 04:00 PM  66.8°F  64°F  4 mph SW  5 mph  11 mph  0.00"  10%  37%  5°F  36°F  N/A
Sat 03:00 PM  68.0°F  65°F  5 mph SW  5 mph  11 mph  0.00"  9%  35%  3°F  35°F  N/A
Sat 02:00 PM  68.4°F  65°F  3 mph SW  5 mph  12 mph  0.00"  8%  34%  2°F  35°F  N/A
Sat 01:00 PM  67.1°F  65°F  3 mph SE  5 mph  12 mph  0.00"  10%  34%  7°F  35°F  N/A
Sat 12:00 PM  66.9°F  64°F  7 mph E  4 mph  13 mph  0.00"  12%  35%  10°F  35°F  N/A
Sat 11:00 AM  65.6°F  63°F  5 mph SE  4 mph  11 mph  0.00"  13%  38%  10°F  36°F  N/A
Sat 10:00 AM  61.6°F  60°F  3 mph SW  3 mph  9 mph  0.00"  13%  46%  8°F  38°F  N/A
Sat 09:00 AM  58.5°F  57°F  calm  3 mph  8 mph  0.00"  14%  53%  7°F  39°F  N/A
Sat 08:00 AM  54.2°F  54°F  5 mph SW  3 mph  7 mph  0.00"  18%  57%  10°F  38°F  N/A
Sat 07:00 AM  55.7°F  52°F  calm  3 mph  5 mph  0.00"  14%  59%  5°F  38°F  N/A
Sat 06:00 AM  53.3°F  52°F  calm  2 mph  none  0.00"  15%  60%  4°F  38°F  N/A
Sat 05:00 AM  53.2°F  52°F  calm  2 mph  7 mph  0.00"  16%  60%  5°F  38°F  N/A
Sat 04:00 AM  52.6°F  52°F  1 mph SW  3 mph  13 mph  0.00"  16%  60%  5°F  38°F  N/A
Sat 03:00 AM  53.0°F  53°F  5 mph SW  2 mph  9 mph  0.00"  15%  59%  5°F  39°F  N/A

  1. Current weather data. No green row appears if the current weather data is also the high or low for the current day.
  2. High temperature for the current day.
  3. Low temperature for the current day.

The Riverside (Orangecrest), California weather pages are a service of WeatherCurrents.
Copyright ©2020  WeatherCurrents. All rights reserved. - Submit questions and comments - Privacy Policy

This page automatically refreshes every 10 minutes.